Terminal Aerodrome Forecast
Issued by NWS

Home | Current Version | Previous Version | Graphics & Text | Print | Product List | Glossary On
Versions: 1 2 3 4 5 6 7 8 9 10 11 12 13
397
FTUS43 KOAX 031120
TAFCDR
TAF
KCDR 031120Z 0312/0412 27008KT P6SM OVC040
      TEMPO 0312/0315 4SM -SN BR OVC025
     FM031500 28012G22KT P6SM BKN040
     FM031900 29010G20KT P6SM BKN080
     FM040100 26009KT P6SM SCT080=

USA.gov is the U.S. government's official web portal to all federal, state and local government web resources and services.